sensor_id;sensor_type;location;lat;lon;timestamp;P1;durP1;ratioP1;P2;durP2;ratioP2
55710;SDS011;41612;51.994;5.880;2022-08-11T00:01:09;3.78;;;1.70;;
55710;SDS011;41612;51.994;5.880;2022-08-11T00:03:55;3.72;;;1.55;;
55710;SDS011;41612;51.994;5.880;2022-08-11T00:06:28;3.28;;;1.55;;
55710;SDS011;41612;51.994;5.880;2022-08-11T00:09:02;2.88;;;1.30;;
55710;SDS011;41612;51.994;5.880;2022-08-11T00:11:41;3.97;;;1.30;;
55710;SDS011;41612;51.994;5.880;2022-08-11T00:14:14;3.00;;;1.50;;
55710;SDS011;41612;51.994;5.880;2022-08-11T00:16:55;2.70;;;1.50;;
55710;SDS011;41612;51.994;5.880;2022-08-11T00:19:31;4.10;;;1.60;;
55710;SDS011;41612;51.994;5.880;2022-08-11T00:22:18;2.78;;;1.45;;
55710;SDS011;41612;51.994;5.880;2022-08-11T00:24:45;3.28;;;1.58;;
55710;SDS011;41612;51.994;5.880;2022-08-11T00:27:13;2.75;;;1.48;;
55710;SDS011;41612;51.994;5.880;2022-08-11T00:29:39;4.97;;;2.00;;
55710;SDS011;41612;51.994;5.880;2022-08-11T00:32:12;2.10;;;1.58;;
55710;SDS011;41612;51.994;5.880;2022-08-11T00:34:42;2.20;;;1.40;;
55710;SDS011;41612;51.994;5.880;2022-08-11T00:37:20;3.60;;;1.77;;
55710;SDS011;41612;51.994;5.880;2022-08-11T00:39:52;2.65;;;1.70;;
55710;SDS011;41612;51.994;5.880;2022-08-11T00:44:57;2.47;;;1.60;;
55710;SDS011;41612;51.994;5.880;2022-08-11T00:47:38;2.85;;;1.48;;
55710;SDS011;41612;51.994;5.880;2022-08-11T00:50:17;2.47;;;1.65;;
55710;SDS011;41612;51.994;5.880;2022-08-11T00:53:23;2.55;;;1.30;;
55710;SDS011;41612;51.994;5.880;2022-08-11T01:40:50;2.40;;;1.50;;
55710;SDS011;41612;51.994;5.880;2022-08-11T02:04:33;3.08;;;1.98;;
55710;SDS011;41612;51.994;5.880;2022-08-11T02:10:34;2.65;;;1.50;;
55710;SDS011;41612;51.994;5.880;2022-08-11T02:22:45;2.55;;;1.77;;
55710;SDS011;41612;51.994;5.880;2022-08-11T02:25:52;3.95;;;1.67;;
55710;SDS011;41612;51.994;5.880;2022-08-11T02:28:26;3.78;;;2.15;;
55710;SDS011;41612;51.994;5.880;2022-08-11T02:34:07;3.67;;;1.50;;
55710;SDS011;41612;51.994;5.880;2022-08-11T02:39:58;2.70;;;1.55;;
55710;SDS011;41612;51.994;5.880;2022-08-11T02:42:49;2.30;;;1.67;;
55710;SDS011;41612;51.994;5.880;2022-08-11T02:45:33;3.63;;;1.80;;
55710;SDS011;41612;51.994;5.880;2022-08-11T02:52:02;3.88;;;1.88;;
55710;SDS011;41612;51.994;5.880;2022-08-11T02:54:31;3.05;;;1.63;;
55710;SDS011;41612;51.994;5.880;2022-08-11T02:57:23;2.63;;;1.42;;
55710;SDS011;41612;51.994;5.880;2022-08-11T03:00:08;3.25;;;1.50;;
55710;SDS011;41612;51.994;5.880;2022-08-11T03:05:23;3.50;;;1.65;;
55710;SDS011;41612;51.994;5.880;2022-08-11T03:16:52;4.47;;;2.25;;
55710;SDS011;41612;51.994;5.880;2022-08-11T03:25:50;3.65;;;2.00;;
55710;SDS011;41612;51.994;5.880;2022-08-11T03:28:26;4.05;;;2.00;;
55710;SDS011;41612;51.994;5.880;2022-08-11T03:33:49;5.43;;;1.73;;
55710;SDS011;41612;51.994;5.880;2022-08-11T03:39:22;2.78;;;1.52;;
55710;SDS011;41612;51.994;5.880;2022-08-11T03:53:29;2.15;;;1.55;;
55710;SDS011;41612;51.994;5.880;2022-08-11T04:07:31;5.32;;;2.00;;
55710;SDS011;41612;51.994;5.880;2022-08-11T04:17:38;2.35;;;1.60;;
55710;SDS011;41612;51.994;5.880;2022-08-11T04:20:37;3.90;;;2.30;;
55710;SDS011;41612;51.994;5.880;2022-08-11T04:47:18;4.18;;;2.13;;
55710;SDS011;41612;51.994;5.880;2022-08-11T04:50:21;2.78;;;1.90;;
55710;SDS011;41612;51.994;5.880;2022-08-11T04:53:44;3.42;;;2.13;;
55710;SDS011;41612;51.994;5.880;2022-08-11T04:56:42;3.63;;;2.03;;
55710;SDS011;41612;51.994;5.880;2022-08-11T04:59:38;3.92;;;2.20;;
55710;SDS011;41612;51.994;5.880;2022-08-11T05:16:55;3.40;;;1.73;;
55710;SDS011;41612;51.994;5.880;2022-08-11T05:19:46;3.28;;;2.10;;
55710;SDS011;41612;51.994;5.880;2022-08-11T05:22:32;4.43;;;1.65;;
55710;SDS011;41612;51.994;5.880;2022-08-11T05:25:18;2.72;;;1.65;;
55710;SDS011;41612;51.994;5.880;2022-08-11T05:28:09;2.97;;;2.00;;
55710;SDS011;41612;51.994;5.880;2022-08-11T05:30:57;3.45;;;2.05;;
55710;SDS011;41612;51.994;5.880;2022-08-11T05:33:50;3.03;;;1.98;;
55710;SDS011;41612;51.994;5.880;2022-08-11T05:39:14;3.33;;;2.05;;
55710;SDS011;41612;51.994;5.880;2022-08-11T05:42:00;2.92;;;2.00;;
55710;SDS011;41612;51.994;5.880;2022-08-11T05:44:47;2.60;;;1.73;;
55710;SDS011;41612;51.994;5.880;2022-08-11T05:47:33;2.60;;;1.70;;
55710;SDS011;41612;51.994;5.880;2022-08-11T05:50:19;3.08;;;1.98;;
55710;SDS011;41612;51.994;5.880;2022-08-11T05:53:09;4.10;;;2.00;;
55710;SDS011;41612;51.994;5.880;2022-08-11T05:55:56;3.03;;;1.63;;
55710;SDS011;41612;51.994;5.880;2022-08-11T05:58:42;3.28;;;1.73;;
55710;SDS011;41612;51.994;5.880;2022-08-11T06:01:10;3.35;;;1.85;;
55710;SDS011;41612;51.994;5.880;2022-08-11T06:03:47;3.35;;;2.03;;
55710;SDS011;41612;51.994;5.880;2022-08-11T06:06:37;2.78;;;1.75;;
55710;SDS011;41612;51.994;5.880;2022-08-11T06:09:06;2.50;;;1.80;;
55710;SDS011;41612;51.994;5.880;2022-08-11T06:11:40;3.08;;;1.92;;
55710;SDS011;41612;51.994;5.880;2022-08-11T06:14:07;4.07;;;2.40;;
55710;SDS011;41612;51.994;5.880;2022-08-11T06:16:37;3.45;;;2.00;;
55710;SDS011;41612;51.994;5.880;2022-08-11T06:19:30;3.20;;;1.90;;
55710;SDS011;41612;51.994;5.880;2022-08-11T06:22:03;2.80;;;1.90;;
55710;SDS011;41612;51.994;5.880;2022-08-11T06:24:30;4.20;;;2.05;;
55710;SDS011;41612;51.994;5.880;2022-08-11T06:26:58;3.15;;;1.70;;
55710;SDS011;41612;51.994;5.880;2022-08-11T06:29:25;4.07;;;2.08;;
55710;SDS011;41612;51.994;5.880;2022-08-11T06:31:53;3.50;;;1.80;;
55710;SDS011;41612;51.994;5.880;2022-08-11T06:39:49;4.65;;;1.70;;
55710;SDS011;41612;51.994;5.880;2022-08-11T06:42:30;3.10;;;1.98;;
55710;SDS011;41612;51.994;5.880;2022-08-11T06:45:35;4.55;;;1.80;;
55710;SDS011;41612;51.994;5.880;2022-08-11T06:48:15;2.70;;;1.50;;
55710;SDS011;41612;51.994;5.880;2022-08-11T06:50:47;2.10;;;1.50;;
55710;SDS011;41612;51.994;5.880;2022-08-11T06:53:43;3.10;;;1.90;;
55710;SDS011;41612;51.994;5.880;2022-08-11T06:56:15;3.63;;;1.60;;
55710;SDS011;41612;51.994;5.880;2022-08-11T06:59:08;3.25;;;1.75;;
55710;SDS011;41612;51.994;5.880;2022-08-11T07:02:00;4.28;;;1.60;;
55710;SDS011;41612;51.994;5.880;2022-08-11T07:13:08;3.58;;;1.77;;
55710;SDS011;41612;51.994;5.880;2022-08-11T07:15:53;2.67;;;1.33;;
55710;SDS011;41612;51.994;5.880;2022-08-11T07:18:26;2.30;;;1.50;;
55710;SDS011;41612;51.994;5.880;2022-08-11T07:21:31;2.42;;;1.60;;
55710;SDS011;41612;51.994;5.880;2022-08-11T07:24:18;3.38;;;1.50;;
55710;SDS011;41612;51.994;5.880;2022-08-11T07:27:07;4.45;;;1.98;;
55710;SDS011;41612;51.994;5.880;2022-08-11T07:29:55;2.75;;;1.75;;
55710;SDS011;41612;51.994;5.880;2022-08-11T07:32:26;3.55;;;2.10;;
55710;SDS011;41612;51.994;5.880;2022-08-11T07:35:10;2.30;;;1.58;;
55710;SDS011;41612;51.994;5.880;2022-08-11T07:38:11;2.60;;;1.63;;
55710;SDS011;41612;51.994;5.880;2022-08-11T07:41:17;3.97;;;1.70;;
55710;SDS011;41612;51.994;5.880;2022-08-11T07:43:54;2.58;;;1.40;;
55710;SDS011;41612;51.994;5.880;2022-08-11T07:46:34;3.97;;;1.90;;
55710;SDS011;41612;51.994;5.880;2022-08-11T07:49:24;3.65;;;1.70;;
55710;SDS011;41612;51.994;5.880;2022-08-11T07:55:02;3.38;;;1.98;;
55710;SDS011;41612;51.994;5.880;2022-08-11T07:57:36;3.35;;;2.15;;
55710;SDS011;41612;51.994;5.880;2022-08-11T08:00:21;2.67;;;1.58;;
55710;SDS011;41612;51.994;5.880;2022-08-11T08:03:05;4.57;;;2.00;;
55710;SDS011;41612;51.994;5.880;2022-08-11T08:05:50;3.05;;;1.75;;
55710;SDS011;41612;51.994;5.880;2022-08-11T08:08:36;2.53;;;1.65;;
55710;SDS011;41612;51.994;5.880;2022-08-11T08:11:24;3.97;;;1.92;;
55710;SDS011;41612;51.994;5.880;2022-08-11T08:14:09;3.92;;;1.85;;
55710;SDS011;41612;51.994;5.880;2022-08-11T08:16:55;4.88;;;2.35;;
55710;SDS011;41612;51.994;5.880;2022-08-11T08:19:45;6.35;;;2.25;;
55710;SDS011;41612;51.994;5.880;2022-08-11T08:22:19;4.00;;;2.42;;
55710;SDS011;41612;51.994;5.880;2022-08-11T08:24:46;4.82;;;2.17;;
55710;SDS011;41612;51.994;5.880;2022-08-11T08:27:13;3.65;;;1.90;;
55710;SDS011;41612;51.994;5.880;2022-08-11T08:29:44;5.22;;;2.63;;
55710;SDS011;41612;51.994;5.880;2022-08-11T08:32:29;4.82;;;1.90;;
55710;SDS011;41612;51.994;5.880;2022-08-11T08:35:15;3.92;;;2.28;;
55710;SDS011;41612;51.994;5.880;2022-08-11T08:37:41;4.00;;;2.00;;
55710;SDS011;41612;51.994;5.880;2022-08-11T08:40:07;5.18;;;2.33;;
55710;SDS011;41612;51.994;5.880;2022-08-11T08:42:40;3.50;;;2.20;;
55710;SDS011;41612;51.994;5.880;2022-08-11T08:45:10;3.92;;;1.85;;
55710;SDS011;41612;51.994;5.880;2022-08-11T08:47:40;6.20;;;2.40;;
55710;SDS011;41612;51.994;5.880;2022-08-11T08:50:16;3.22;;;2.20;;
55710;SDS011;41612;51.994;5.880;2022-08-11T08:52:52;3.55;;;2.10;;
55710;SDS011;41612;51.994;5.880;2022-08-11T08:55:22;4.68;;;1.88;;
55710;SDS011;41612;51.994;5.880;2022-08-11T08:57:53;5.20;;;1.95;;
55710;SDS011;41612;51.994;5.880;2022-08-11T09:00:24;3.50;;;2.10;;
55710;SDS011;41612;51.994;5.880;2022-08-11T09:02:53;7.47;;;2.15;;
55710;SDS011;41612;51.994;5.880;2022-08-11T09:08:06;4.38;;;2.20;;
55710;SDS011;41612;51.994;5.880;2022-08-11T09:10:33;3.50;;;2.20;;
55710;SDS011;41612;51.994;5.880;2022-08-11T09:12:59;5.20;;;2.22;;
55710;SDS011;41612;51.994;5.880;2022-08-11T09:15:30;5.72;;;2.20;;
55710;SDS011;41612;51.994;5.880;2022-08-11T09:17:58;4.85;;;2.65;;
55710;SDS011;41612;51.994;5.880;2022-08-11T09:20:42;6.07;;;2.10;;
55710;SDS011;41612;51.994;5.880;2022-08-11T09:23:28;7.43;;;2.15;;
55710;SDS011;41612;51.994;5.880;2022-08-11T09:26:13;4.72;;;2.35;;
55710;SDS011;41612;51.994;5.880;2022-08-11T09:28:59;2.45;;;1.67;;
55710;SDS011;41612;51.994;5.880;2022-08-11T09:31:25;4.45;;;2.10;;
55710;SDS011;41612;51.994;5.880;2022-08-11T09:34:02;4.28;;;2.33;;
55710;SDS011;41612;51.994;5.880;2022-08-11T09:36:49;5.50;;;1.88;;
55710;SDS011;41612;51.994;5.880;2022-08-11T09:39:37;3.05;;;1.85;;
55710;SDS011;41612;51.994;5.880;2022-08-11T09:52:54;3.60;;;2.13;;
55710;SDS011;41612;51.994;5.880;2022-08-11T09:55:21;3.67;;;2.22;;
55710;SDS011;41612;51.994;5.880;2022-08-11T09:57:47;4.88;;;1.90;;
55710;SDS011;41612;51.994;5.880;2022-08-11T10:00:32;5.60;;;2.05;;
55710;SDS011;41612;51.994;5.880;2022-08-11T10:03:25;3.47;;;2.13;;
55710;SDS011;41612;51.994;5.880;2022-08-11T10:06:02;3.85;;;1.95;;
55710;SDS011;41612;51.994;5.880;2022-08-11T10:08:51;3.63;;;1.70;;
55710;SDS011;41612;51.994;5.880;2022-08-11T10:11:20;4.50;;;2.15;;
55710;SDS011;41612;51.994;5.880;2022-08-11T10:13:49;6.05;;;2.47;;
55710;SDS011;41612;51.994;5.880;2022-08-11T10:16:36;5.05;;;2.17;;
55710;SDS011;41612;51.994;5.880;2022-08-11T10:19:05;5.28;;;1.80;;
55710;SDS011;41612;51.994;5.880;2022-08-11T10:21:51;4.13;;;2.20;;
55710;SDS011;41612;51.994;5.880;2022-08-11T10:25:00;5.85;;;2.22;;
55710;SDS011;41612;51.994;5.880;2022-08-11T10:27:47;4.60;;;1.80;;
55710;SDS011;41612;51.994;5.880;2022-08-11T10:30:25;4.90;;;1.80;;
55710;SDS011;41612;51.994;5.880;2022-08-11T10:33:13;4.05;;;1.70;;
55710;SDS011;41612;51.994;5.880;2022-08-11T10:36:06;4.00;;;1.75;;
55710;SDS011;41612;51.994;5.880;2022-08-11T10:38:32;4.57;;;1.73;;
55710;SDS011;41612;51.994;5.880;2022-08-11T10:40:59;3.00;;;1.40;;
55710;SDS011;41612;51.994;5.880;2022-08-11T10:43:44;4.45;;;1.88;;
55710;SDS011;41612;51.994;5.880;2022-08-11T10:46:10;4.53;;;1.85;;
55710;SDS011;41612;51.994;5.880;2022-08-11T10:48:56;7.78;;;1.98;;
55710;SDS011;41612;51.994;5.880;2022-08-11T10:51:25;2.95;;;1.70;;
55710;SDS011;41612;51.994;5.880;2022-08-11T10:54:10;3.47;;;2.00;;
55710;SDS011;41612;51.994;5.880;2022-08-11T10:56:59;4.22;;;1.55;;
55710;SDS011;41612;51.994;5.880;2022-08-11T11:02:12;2.95;;;1.67;;
55710;SDS011;41612;51.994;5.880;2022-08-11T11:07:58;5.72;;;1.63;;
55710;SDS011;41612;51.994;5.880;2022-08-11T11:10:50;3.88;;;1.90;;
55710;SDS011;41612;51.994;5.880;2022-08-11T11:13:17;3.75;;;1.80;;
55710;SDS011;41612;51.994;5.880;2022-08-11T11:16:13;3.78;;;1.85;;
55710;SDS011;41612;51.994;5.880;2022-08-11T11:34:19;6.57;;;1.67;;
55710;SDS011;41612;51.994;5.880;2022-08-11T11:39:59;7.13;;;1.73;;
55710;SDS011;41612;51.994;5.880;2022-08-11T11:42:26;3.88;;;1.98;;
55710;SDS011;41612;51.994;5.880;2022-08-11T11:44:59;3.13;;;1.60;;
55710;SDS011;41612;51.994;5.880;2022-08-11T11:47:26;2.42;;;1.40;;
55710;SDS011;41612;51.994;5.880;2022-08-11T11:49:54;5.38;;;1.83;;
55710;SDS011;41612;51.994;5.880;2022-08-11T11:52:20;6.32;;;1.55;;
55710;SDS011;41612;51.994;5.880;2022-08-11T11:54:51;3.55;;;1.58;;
55710;SDS011;41612;51.994;5.880;2022-08-11T11:57:21;6.22;;;1.73;;
55710;SDS011;41612;51.994;5.880;2022-08-11T12:00:08;3.28;;;1.45;;
55710;SDS011;41612;51.994;5.880;2022-08-11T12:02:57;2.13;;;1.50;;
55710;SDS011;41612;51.994;5.880;2022-08-11T12:05:26;6.45;;;1.50;;
55710;SDS011;41612;51.994;5.880;2022-08-11T12:07:53;3.90;;;1.60;;
55710;SDS011;41612;51.994;5.880;2022-08-11T12:10:43;2.65;;;1.48;;
55710;SDS011;41612;51.994;5.880;2022-08-11T12:13:11;2.45;;;1.40;;
55710;SDS011;41612;51.994;5.880;2022-08-11T12:15:58;3.70;;;1.60;;
55710;SDS011;41612;51.994;5.880;2022-08-11T12:18:31;2.63;;;1.33;;
55710;SDS011;41612;51.994;5.880;2022-08-11T12:23:59;3.15;;;1.30;;
55710;SDS011;41612;51.994;5.880;2022-08-11T12:26:44;3.53;;;1.50;;
55710;SDS011;41612;51.994;5.880;2022-08-11T12:29:38;2.67;;;1.40;;
55710;SDS011;41612;51.994;5.880;2022-08-11T12:32:05;4.78;;;1.98;;
55710;SDS011;41612;51.994;5.880;2022-08-11T12:34:33;5.68;;;1.50;;
55710;SDS011;41612;51.994;5.880;2022-08-11T12:37:00;4.85;;;1.67;;
55710;SDS011;41612;51.994;5.880;2022-08-11T12:39:33;2.65;;;1.30;;
55710;SDS011;41612;51.994;5.880;2022-08-11T12:42:20;3.03;;;1.17;;
55710;SDS011;41612;51.994;5.880;2022-08-11T12:45:07;3.92;;;1.10;;
55710;SDS011;41612;51.994;5.880;2022-08-11T12:48:12;2.67;;;1.20;;
55710;SDS011;41612;51.994;5.880;2022-08-11T12:51:02;4.95;;;1.38;;
55710;SDS011;41612;51.994;5.880;2022-08-11T12:53:54;1.77;;;1.00;;
55710;SDS011;41612;51.994;5.880;2022-08-11T12:56:43;2.95;;;1.30;;
55710;SDS011;41612;51.994;5.880;2022-08-11T12:59:30;2.03;;;1.20;;
55710;SDS011;41612;51.994;5.880;2022-08-11T13:02:16;3.67;;;1.30;;
55710;SDS011;41612;51.994;5.880;2022-08-11T13:05:03;3.17;;;1.50;;
55710;SDS011;41612;51.994;5.880;2022-08-11T13:07:36;3.78;;;1.20;;
55710;SDS011;41612;51.994;5.880;2022-08-11T13:10:28;2.72;;;0.90;;
55710;SDS011;41612;51.994;5.880;2022-08-11T13:13:16;3.22;;;1.17;;
55710;SDS011;41612;51.994;5.880;2022-08-11T13:15:44;2.45;;;1.25;;
55710;SDS011;41612;51.994;5.880;2022-08-11T13:18:13;2.63;;;1.25;;
55710;SDS011;41612;51.994;5.880;2022-08-11T13:20:41;3.45;;;1.23;;
55710;SDS011;41612;51.994;5.880;2022-08-11T13:23:09;5.55;;;1.38;;
55710;SDS011;41612;51.994;5.880;2022-08-11T13:25:38;2.78;;;1.55;;
55710;SDS011;41612;51.994;5.880;2022-08-11T13:28:05;4.00;;;1.65;;
55710;SDS011;41612;51.994;5.880;2022-08-11T13:30:31;2.20;;;1.00;;
55710;SDS011;41612;51.994;5.880;2022-08-11T13:33:17;1.70;;;1.00;;
55710;SDS011;41612;51.994;5.880;2022-08-11T13:35:45;4.95;;;1.50;;
55710;SDS011;41612;51.994;5.880;2022-08-11T13:38:15;1.80;;;0.98;;
55710;SDS011;41612;51.994;5.880;2022-08-11T13:40:48;1.88;;;0.95;;
55710;SDS011;41612;51.994;5.880;2022-08-11T13:43:16;6.72;;;1.88;;
55710;SDS011;41612;51.994;5.880;2022-08-11T13:45:45;1.65;;;1.00;;
55710;SDS011;41612;51.994;5.880;2022-08-11T13:48:16;1.60;;;0.93;;
55710;SDS011;41612;51.994;5.880;2022-08-11T13:50:52;3.53;;;1.08;;
55710;SDS011;41612;51.994;5.880;2022-08-11T13:53:37;5.13;;;1.40;;
55710;SDS011;41612;51.994;5.880;2022-08-11T13:56:03;2.08;;;1.30;;
55710;SDS011;41612;51.994;5.880;2022-08-11T13:58:32;4.80;;;1.17;;
55710;SDS011;41612;51.994;5.880;2022-08-11T14:01:00;1.88;;;1.08;;
55710;SDS011;41612;51.994;5.880;2022-08-11T14:03:27;3.90;;;1.38;;
55710;SDS011;41612;51.994;5.880;2022-08-11T14:05:56;2.67;;;1.00;;
55710;SDS011;41612;51.994;5.880;2022-08-11T14:08:26;4.65;;;1.20;;
55710;SDS011;41612;51.994;5.880;2022-08-11T14:10:58;2.25;;;1.00;;
55710;SDS011;41612;51.994;5.880;2022-08-11T14:13:44;2.30;;;0.95;;
55710;SDS011;41612;51.994;5.880;2022-08-11T14:16:14;3.05;;;1.10;;
55710;SDS011;41612;51.994;5.880;2022-08-11T14:18:44;2.90;;;0.98;;
55710;SDS011;41612;51.994;5.880;2022-08-11T14:21:13;4.70;;;1.27;;
55710;SDS011;41612;51.994;5.880;2022-08-11T14:23:59;1.88;;;0.93;;
55710;SDS011;41612;51.994;5.880;2022-08-11T14:26:33;3.53;;;1.55;;
55710;SDS011;41612;51.994;5.880;2022-08-11T14:31:38;1.75;;;1.00;;
55710;SDS011;41612;51.994;5.880;2022-08-11T14:34:19;3.47;;;1.08;;
55710;SDS011;41612;51.994;5.880;2022-08-11T14:39:43;3.70;;;1.20;;
55710;SDS011;41612;51.994;5.880;2022-08-11T14:42:12;4.05;;;1.27;;
55710;SDS011;41612;51.994;5.880;2022-08-11T14:45:01;4.75;;;1.30;;
55710;SDS011;41612;51.994;5.880;2022-08-11T14:47:41;5.28;;;1.35;;
55710;SDS011;41612;51.994;5.880;2022-08-11T14:50:10;3.28;;;0.93;;
55710;SDS011;41612;51.994;5.880;2022-08-11T14:52:49;1.45;;;0.80;;
55710;SDS011;41612;51.994;5.880;2022-08-11T14:55:37;1.73;;;1.08;;
55710;SDS011;41612;51.994;5.880;2022-08-11T14:58:25;2.47;;;0.90;;
55710;SDS011;41612;51.994;5.880;2022-08-11T15:00:58;3.25;;;1.05;;
55710;SDS011;41612;51.994;5.880;2022-08-11T15:03:51;1.63;;;1.05;;
55710;SDS011;41612;51.994;5.880;2022-08-11T15:06:17;1.80;;;0.80;;
55710;SDS011;41612;51.994;5.880;2022-08-11T15:08:45;2.85;;;1.30;;
55710;SDS011;41612;51.994;5.880;2022-08-11T15:11:25;2.95;;;1.10;;
55710;SDS011;41612;51.994;5.880;2022-08-11T15:14:12;2.30;;;1.00;;
55710;SDS011;41612;51.994;5.880;2022-08-11T15:16:59;1.63;;;1.10;;
55710;SDS011;41612;51.994;5.880;2022-08-11T15:19:32;2.03;;;1.00;;
55710;SDS011;41612;51.994;5.880;2022-08-11T15:22:08;1.90;;;1.15;;
55710;SDS011;41612;51.994;5.880;2022-08-11T15:24:58;3.53;;;1.15;;
55710;SDS011;41612;51.994;5.880;2022-08-11T15:27:24;3.80;;;1.27;;
55710;SDS011;41612;51.994;5.880;2022-08-11T15:30:10;1.40;;;0.90;;
55710;SDS011;41612;51.994;5.880;2022-08-11T15:32:54;1.63;;;0.93;;
55710;SDS011;41612;51.994;5.880;2022-08-11T15:35:40;2.35;;;0.95;;
55710;SDS011;41612;51.994;5.880;2022-08-11T15:38:39;1.75;;;1.10;;
55710;SDS011;41612;51.994;5.880;2022-08-11T15:41:16;1.35;;;0.80;;
55710;SDS011;41612;51.994;5.880;2022-08-11T15:44:05;4.60;;;1.00;;
55710;SDS011;41612;51.994;5.880;2022-08-11T15:46:58;3.05;;;1.10;;
55710;SDS011;41612;51.994;5.880;2022-08-11T15:49:37;1.80;;;1.10;;
55710;SDS011;41612;51.994;5.880;2022-08-11T15:55:27;2.20;;;1.00;;
55710;SDS011;41612;51.994;5.880;2022-08-11T15:58:00;3.17;;;1.00;;
55710;SDS011;41612;51.994;5.880;2022-08-11T16:00:50;3.05;;;1.00;;
55710;SDS011;41612;51.994;5.880;2022-08-11T16:04:06;2.97;;;1.20;;
55710;SDS011;41612;51.994;5.880;2022-08-11T16:06:48;2.30;;;0.98;;
55710;SDS011;41612;51.994;5.880;2022-08-11T16:09:33;2.45;;;1.08;;
55710;SDS011;41612;51.994;5.880;2022-08-11T16:12:02;2.60;;;1.40;;
55710;SDS011;41612;51.994;5.880;2022-08-11T16:14:33;1.98;;;1.00;;
55710;SDS011;41612;51.994;5.880;2022-08-11T16:17:23;3.95;;;1.40;;
55710;SDS011;41612;51.994;5.880;2022-08-11T16:19:52;3.28;;;1.17;;
55710;SDS011;41612;51.994;5.880;2022-08-11T16:22:27;1.80;;;1.20;;
55710;SDS011;41612;51.994;5.880;2022-08-11T16:25:02;1.90;;;1.13;;
55710;SDS011;41612;51.994;5.880;2022-08-11T16:27:37;2.95;;;1.17;;
55710;SDS011;41612;51.994;5.880;2022-08-11T16:30:30;2.85;;;1.30;;
55710;SDS011;41612;51.994;5.880;2022-08-11T16:32:57;2.30;;;1.20;;
55710;SDS011;41612;51.994;5.880;2022-08-11T16:39:26;3.35;;;1.58;;
55710;SDS011;41612;51.994;5.880;2022-08-11T16:41:54;3.03;;;1.33;;
55710;SDS011;41612;51.994;5.880;2022-08-11T16:44:39;2.03;;;1.17;;
55710;SDS011;41612;51.994;5.880;2022-08-11T16:49:51;3.85;;;1.67;;
55710;SDS011;41612;51.994;5.880;2022-08-11T16:52:20;4.10;;;1.50;;
55710;SDS011;41612;51.994;5.880;2022-08-11T16:55:09;2.45;;;1.33;;
55710;SDS011;41612;51.994;5.880;2022-08-11T16:57:35;5.68;;;1.67;;
55710;SDS011;41612;51.994;5.880;2022-08-11T17:00:23;3.35;;;1.20;;
55710;SDS011;41612;51.994;5.880;2022-08-11T17:02:52;3.03;;;1.40;;
55710;SDS011;41612;51.994;5.880;2022-08-11T17:05:38;3.45;;;1.20;;
55710;SDS011;41612;51.994;5.880;2022-08-11T17:08:53;4.82;;;1.38;;
55710;SDS011;41612;51.994;5.880;2022-08-11T17:11:43;3.10;;;1.70;;
55710;SDS011;41612;51.994;5.880;2022-08-11T17:14:34;3.78;;;1.25;;
55710;SDS011;41612;51.994;5.880;2022-08-11T17:17:05;3.10;;;1.30;;
55710;SDS011;41612;51.994;5.880;2022-08-11T17:19:36;2.33;;;1.30;;
55710;SDS011;41612;51.994;5.880;2022-08-11T17:22:15;2.97;;;1.40;;
55710;SDS011;41612;51.994;5.880;2022-08-11T17:25:04;2.85;;;1.40;;
55710;SDS011;41612;51.994;5.880;2022-08-11T17:27:35;2.00;;;1.08;;
55710;SDS011;41612;51.994;5.880;2022-08-11T17:30:07;2.38;;;1.10;;
55710;SDS011;41612;51.994;5.880;2022-08-11T17:32:39;2.05;;;1.30;;
55710;SDS011;41612;51.994;5.880;2022-08-11T17:35:32;2.95;;;1.27;;
55710;SDS011;41612;51.994;5.880;2022-08-11T17:38:06;3.47;;;1.30;;
55710;SDS011;41612;51.994;5.880;2022-08-11T17:40:34;4.43;;;1.20;;
55710;SDS011;41612;51.994;5.880;2022-08-11T17:43:03;4.38;;;1.67;;
55710;SDS011;41612;51.994;5.880;2022-08-11T17:45:50;2.55;;;1.20;;
55710;SDS011;41612;51.994;5.880;2022-08-11T17:48:41;2.40;;;1.27;;
55710;SDS011;41612;51.994;5.880;2022-08-11T17:51:12;3.70;;;1.33;;
55710;SDS011;41612;51.994;5.880;2022-08-11T17:54:01;2.75;;;1.42;;
55710;SDS011;41612;51.994;5.880;2022-08-11T17:56:47;3.00;;;1.40;;
55710;SDS011;41612;51.994;5.880;2022-08-11T17:59:33;2.17;;;1.30;;
55710;SDS011;41612;51.994;5.880;2022-08-11T18:02:38;2.20;;;1.40;;
55710;SDS011;41612;51.994;5.880;2022-08-11T18:05:23;2.45;;;0.93;;
55710;SDS011;41612;51.994;5.880;2022-08-11T18:07:52;3.10;;;1.33;;
55710;SDS011;41612;51.994;5.880;2022-08-11T18:10:40;2.83;;;1.25;;
55710;SDS011;41612;51.994;5.880;2022-08-11T18:13:25;2.28;;;1.40;;
55710;SDS011;41612;51.994;5.880;2022-08-11T18:16:12;2.95;;;1.27;;
55710;SDS011;41612;51.994;5.880;2022-08-11T18:18:57;2.42;;;1.05;;
55710;SDS011;41612;51.994;5.880;2022-08-11T18:21:43;1.85;;;1.08;;
55710;SDS011;41612;51.994;5.880;2022-08-11T18:24:29;2.40;;;1.42;;
55710;SDS011;41612;51.994;5.880;2022-08-11T18:27:19;3.30;;;1.20;;
55710;SDS011;41612;51.994;5.880;2022-08-11T18:30:06;2.45;;;1.10;;
55710;SDS011;41612;51.994;5.880;2022-08-11T18:32:52;2.10;;;1.20;;
55710;SDS011;41612;51.994;5.880;2022-08-11T18:35:41;4.07;;;1.50;;
55710;SDS011;41612;51.994;5.880;2022-08-11T18:38:32;1.83;;;1.00;;
55710;SDS011;41612;51.994;5.880;2022-08-11T18:41:33;3.70;;;1.63;;
55710;SDS011;41612;51.994;5.880;2022-08-11T18:44:19;2.00;;;1.27;;
55710;SDS011;41612;51.994;5.880;2022-08-11T18:47:11;1.83;;;1.20;;
55710;SDS011;41612;51.994;5.880;2022-08-11T18:49:58;2.63;;;1.40;;
55710;SDS011;41612;51.994;5.880;2022-08-11T18:56:04;2.65;;;1.30;;
55710;SDS011;41612;51.994;5.880;2022-08-11T18:58:49;3.35;;;1.17;;
55710;SDS011;41612;51.994;5.880;2022-08-11T19:01:35;3.42;;;1.20;;
55710;SDS011;41612;51.994;5.880;2022-08-11T19:04:20;3.05;;;1.40;;
55710;SDS011;41612;51.994;5.880;2022-08-11T19:10:23;2.55;;;1.20;;
55710;SDS011;41612;51.994;5.880;2022-08-11T19:13:10;2.25;;;1.25;;
55710;SDS011;41612;51.994;5.880;2022-08-11T19:18:40;1.90;;;1.02;;
55710;SDS011;41612;51.994;5.880;2022-08-11T19:21:39;2.72;;;1.48;;
55710;SDS011;41612;51.994;5.880;2022-08-11T19:24:28;3.05;;;1.60;;
55710;SDS011;41612;51.994;5.880;2022-08-11T19:27:14;2.08;;;1.15;;
55710;SDS011;41612;51.994;5.880;2022-08-11T19:30:00;2.22;;;1.30;;
55710;SDS011;41612;51.994;5.880;2022-08-11T19:32:45;1.88;;;1.10;;
55710;SDS011;41612;51.994;5.880;2022-08-11T19:35:33;4.45;;;1.27;;
55710;SDS011;41612;51.994;5.880;2022-08-11T19:41:03;2.22;;;1.08;;
55710;SDS011;41612;51.994;5.880;2022-08-11T19:43:48;1.80;;;1.20;;
55710;SDS011;41612;51.994;5.880;2022-08-11T19:46:34;4.80;;;1.40;;
55710;SDS011;41612;51.994;5.880;2022-08-11T19:49:19;2.88;;;1.45;;
55710;SDS011;41612;51.994;5.880;2022-08-11T19:52:05;3.10;;;1.55;;
55710;SDS011;41612;51.994;5.880;2022-08-11T19:54:50;1.67;;;1.00;;
55710;SDS011;41612;51.994;5.880;2022-08-11T19:57:35;3.47;;;1.30;;
55710;SDS011;41612;51.994;5.880;2022-08-11T20:00:21;2.17;;;1.30;;
55710;SDS011;41612;51.994;5.880;2022-08-11T20:03:08;2.77;;;1.17;;
55710;SDS011;41612;51.994;5.880;2022-08-11T20:05:55;2.28;;;1.27;;
55710;SDS011;41612;51.994;5.880;2022-08-11T20:08:43;3.15;;;1.75;;
55710;SDS011;41612;51.994;5.880;2022-08-11T20:11:30;2.42;;;1.42;;
55710;SDS011;41612;51.994;5.880;2022-08-11T20:14:21;2.67;;;1.20;;
55710;SDS011;41612;51.994;5.880;2022-08-11T20:17:10;2.20;;;1.25;;
55710;SDS011;41612;51.994;5.880;2022-08-11T20:19:56;2.28;;;1.10;;
55710;SDS011;41612;51.994;5.880;2022-08-11T20:22:42;4.20;;;1.80;;
55710;SDS011;41612;51.994;5.880;2022-08-11T20:25:27;2.35;;;1.27;;
55710;SDS011;41612;51.994;5.880;2022-08-11T20:28:12;2.58;;;1.50;;
55710;SDS011;41612;51.994;5.880;2022-08-11T20:30:59;3.55;;;1.40;;
55710;SDS011;41612;51.994;5.880;2022-08-11T20:33:48;2.40;;;1.50;;
55710;SDS011;41612;51.994;5.880;2022-08-11T20:36:32;2.72;;;1.52;;
55710;SDS011;41612;51.994;5.880;2022-08-11T20:39:18;2.40;;;1.38;;